createdAt,value
2019-06-04T00:00:42.519Z,99.90
2019-06-04T00:03:12.829Z,99.90
2019-06-04T00:05:43.040Z,99.90
2019-06-04T00:08:13.190Z,99.90
2019-06-04T00:10:43.348Z,99.90
2019-06-04T00:13:15.184Z,1.00
2019-06-04T00:15:45.322Z,99.90
2019-06-04T00:18:15.460Z,99.90
2019-06-04T00:20:45.688Z,99.90
2019-06-04T00:23:15.793Z,1.00
2019-06-04T00:25:45.977Z,1.00
2019-06-04T00:28:16.417Z,1.00
2019-06-04T00:30:47.325Z,1.00
2019-06-04T00:33:18.588Z,1.00
2019-06-04T00:35:48.770Z,1.00
2019-06-04T00:38:19.076Z,1.00
2019-06-04T00:40:49.244Z,1.00
2019-06-04T00:43:19.456Z,1.00
2019-06-04T00:45:49.578Z,1.00
2019-06-04T00:48:19.836Z,1.00
2019-06-04T00:50:50.009Z,1.00
2019-06-04T00:53:20.387Z,1.00
2019-06-04T00:55:52.576Z,1.00
2019-06-04T00:58:22.580Z,1.00
2019-06-04T01:00:52.685Z,1.00
2019-06-04T01:03:23.129Z,1.00
2019-06-04T01:05:53.262Z,1.00
2019-06-04T01:08:24.071Z,99.90
2019-06-04T01:10:54.614Z,99.90
2019-06-04T01:13:24.825Z,99.90
2019-06-04T01:15:55.031Z,1.00
2019-06-04T01:18:25.462Z,1.00
2019-06-04T01:20:55.608Z,1.00
2019-06-04T01:23:25.834Z,93.80
2019-06-04T01:25:55.972Z,99.90
2019-06-04T01:28:26.186Z,1.00
2019-06-04T01:30:56.798Z,99.90
2019-06-04T01:33:39.423Z,1.00
2019-06-04T01:36:00.318Z,1.00
2019-06-04T01:38:30.680Z,1.00
2019-06-04T01:41:02.860Z,1.00
2019-06-04T01:43:33.227Z,1.00
2019-06-04T01:46:03.612Z,1.00
2019-06-04T01:48:33.953Z,1.00
2019-06-04T01:51:04.378Z,99.90
2019-06-04T01:53:34.596Z,99.90
2019-06-04T01:56:05.131Z,99.90
2019-06-04T01:58:35.309Z,99.90
2019-06-04T02:01:05.530Z,99.90
2019-06-04T02:03:36.846Z,99.90
2019-06-04T02:06:07.778Z,99.90
2019-06-04T02:08:38.189Z,28.20
2019-06-04T02:11:08.469Z,1.00
2019-06-04T02:13:38.706Z,1.00
2019-06-04T02:16:19.545Z,1.00
2019-06-04T02:18:40.755Z,1.00
2019-06-04T02:21:12.061Z,1.00
2019-06-04T02:23:42.378Z,1.00
2019-06-04T02:26:12.576Z,1.00
2019-06-04T02:28:42.748Z,1.00
2019-06-04T02:31:13.018Z,1.00
2019-06-04T02:33:44.186Z,1.00
2019-06-04T02:36:15.676Z,1.00
2019-06-04T02:38:47.028Z,1.00
2019-06-04T02:41:18.554Z,1.00
2019-06-04T02:43:48.892Z,19.50
2019-06-04T02:46:20.357Z,52.50
2019-06-04T02:48:51.812Z,65.10
2019-06-04T02:51:22.786Z,95.40
2019-06-04T02:53:55.963Z,99.90
2019-06-04T02:56:27.731Z,99.90
2019-06-04T02:58:59.800Z,99.90
2019-06-04T03:01:30.108Z,99.90
2019-06-04T03:04:00.553Z,1.00
2019-06-04T03:06:31.418Z,1.00
2019-06-04T03:09:01.607Z,1.00
2019-06-04T03:11:32.888Z,1.00
2019-06-04T03:14:03.149Z,1.00
2019-06-04T03:16:33.342Z,1.00
2019-06-04T03:19:03.452Z,99.90
2019-06-04T03:21:33.697Z,14.00
2019-06-04T03:24:03.925Z,99.90
2019-06-04T03:26:34.031Z,87.80
2019-06-04T03:29:04.243Z,99.90
2019-06-04T03:31:34.509Z,99.90
2019-06-04T03:34:04.795Z,99.90
2019-06-04T03:36:35.196Z,99.90
2019-06-04T03:39:07.134Z,99.90
2019-06-04T03:41:37.308Z,99.90
2019-06-04T03:44:07.482Z,1.00
2019-06-04T03:46:37.636Z,1.00
2019-06-04T03:49:07.758Z,1.00
2019-06-04T03:51:37.858Z,85.10
2019-06-04T03:54:08.027Z,36.00
2019-06-04T03:56:38.214Z,1.00
2019-06-04T03:59:08.386Z,99.90
2019-06-04T04:01:38.467Z,1.00
2019-06-04T04:04:09.058Z,99.90
2019-06-04T04:06:39.541Z,1.00
2019-06-04T04:09:09.692Z,1.00
2019-06-04T04:11:39.835Z,99.90
2019-06-04T04:14:10.030Z,99.90
2019-06-04T04:16:40.195Z,99.90
2019-06-04T04:19:10.636Z,99.90
2019-06-04T04:21:40.819Z,1.00
2019-06-04T04:24:11.037Z,1.00
2019-06-04T04:26:41.230Z,99.90
2019-06-04T04:29:11.390Z,83.10
2019-06-04T04:31:41.517Z,1.00
2019-06-04T04:34:25.719Z,1.00
2019-06-04T04:36:47.543Z,99.90
2019-06-04T04:39:17.769Z,1.00
2019-06-04T04:41:48.041Z,1.00
2019-06-04T04:44:18.468Z,99.90
2019-06-04T04:46:49.207Z,1.00
2019-06-04T04:49:20.425Z,1.00
2019-06-04T04:51:51.250Z,1.00
2019-06-04T04:54:21.887Z,1.00
2019-06-04T04:56:52.017Z,89.30
2019-06-04T04:59:22.221Z,99.90
2019-06-04T05:01:52.650Z,1.00
2019-06-04T05:04:23.753Z,1.00
2019-06-04T05:06:54.686Z,99.90
2019-06-04T05:09:26.350Z,99.90
2019-06-04T05:11:58.368Z,99.90
2019-06-04T05:14:31.231Z,1.00
2019-06-04T05:17:03.973Z,99.90
2019-06-04T05:19:34.704Z,99.90
2019-06-04T05:22:05.198Z,99.90
2019-06-04T05:24:35.307Z,1.00
2019-06-04T05:27:05.489Z,99.90
2019-06-04T05:29:35.723Z,99.90
2019-06-04T05:32:05.915Z,99.90
2019-06-04T05:34:36.129Z,99.90
2019-06-04T05:37:06.402Z,1.00
2019-06-04T05:39:36.570Z,1.00
2019-06-04T05:42:06.701Z,99.90
2019-06-04T05:44:36.870Z,99.90
2019-06-04T05:47:07.815Z,1.00
2019-06-04T05:49:38.044Z,1.00
2019-06-04T05:52:08.213Z,1.00
2019-06-04T05:54:38.424Z,1.00
2019-06-04T05:57:08.551Z,99.90
2019-06-04T05:59:39.206Z,99.90
2019-06-04T06:02:10.066Z,99.90
2019-06-04T06:04:41.426Z,99.90
2019-06-04T06:07:11.674Z,99.90
2019-06-04T06:09:41.841Z,99.90
2019-06-04T06:12:11.988Z,99.90
2019-06-04T06:14:42.563Z,99.90
2019-06-04T06:17:13.186Z,99.90
2019-06-04T06:19:43.328Z,99.90
2019-06-04T06:22:13.491Z,69.70
2019-06-04T06:24:43.710Z,67.20
2019-06-04T06:27:13.888Z,24.30
2019-06-04T06:29:44.149Z,8.30
2019-06-04T06:32:14.524Z,4.30
2019-06-04T06:34:44.700Z,1.00
2019-06-04T06:37:14.905Z,1.00
2019-06-04T06:39:45.063Z,1.00
2019-06-04T06:42:15.306Z,1.00
2019-06-04T06:44:45.505Z,1.00
2019-06-04T06:47:15.656Z,1.00
2019-06-04T06:49:45.865Z,1.00
2019-06-04T06:52:16.096Z,1.00
2019-06-04T06:54:46.515Z,1.00
2019-06-04T06:57:16.667Z,1.00
2019-06-04T06:59:46.847Z,1.00
2019-06-04T07:02:24.453Z,1.00
2019-06-04T07:04:50.994Z,1.00
2019-06-04T07:07:21.274Z,1.00
2019-06-04T07:09:53.636Z,1.00
2019-06-04T07:12:25.282Z,1.00
2019-06-04T07:14:56.975Z,1.00
2019-06-04T07:17:27.098Z,1.00
2019-06-04T07:19:57.261Z,1.00
2019-06-04T07:22:27.388Z,1.00
2019-06-04T07:24:57.794Z,1.00
2019-06-04T07:27:28.012Z,1.00
2019-06-04T07:29:58.178Z,1.00
2019-06-04T07:32:28.329Z,1.00
2019-06-04T07:34:58.497Z,1.00
2019-06-04T07:37:28.709Z,1.00
2019-06-04T07:40:05.971Z,1.00
2019-06-04T07:42:32.853Z,1.00
2019-06-04T07:45:03.155Z,1.00
2019-06-04T07:47:35.219Z,1.00
2019-06-04T07:50:05.936Z,1.00
2019-06-04T07:52:37.647Z,1.00
2019-06-04T07:55:08.473Z,1.00
2019-06-04T07:57:39.405Z,1.00
2019-06-04T08:00:11.079Z,1.00
2019-06-04T08:02:42.511Z,1.00
2019-06-04T08:05:12.906Z,1.00
2019-06-04T08:07:43.119Z,1.00
2019-06-04T08:10:13.498Z,1.00
2019-06-04T08:12:43.668Z,1.00
2019-06-04T08:15:14.282Z,1.00
2019-06-04T08:17:44.719Z,1.00
2019-06-04T08:20:16.188Z,1.00
2019-06-04T08:22:46.259Z,1.00
2019-06-04T08:25:16.345Z,1.00
2019-06-04T08:27:46.473Z,1.00
2019-06-04T08:30:16.807Z,1.00
2019-06-04T08:32:47.024Z,1.00
2019-06-04T08:35:17.202Z,1.00
2019-06-04T08:37:49.038Z,1.00
2019-06-04T08:40:19.141Z,1.00
2019-06-04T08:42:53.433Z,1.00
2019-06-04T08:45:21.688Z,1.00
2019-06-04T08:47:51.969Z,1.00
2019-06-04T08:50:22.614Z,1.00
2019-06-04T08:52:52.906Z,1.00
2019-06-04T08:55:38.520Z,1.00
2019-06-04T08:58:10.647Z,1.00
2019-06-04T09:00:44.584Z,1.00
2019-06-04T09:03:14.953Z,1.00
2019-06-04T09:05:46.224Z,1.00
2019-06-04T09:08:16.701Z,1.00
2019-06-04T09:10:48.421Z,1.00
2019-06-04T09:13:19.735Z,1.00
2019-06-04T09:15:55.355Z,1.00
2019-06-04T09:18:22.637Z,1.00
2019-06-04T09:20:53.238Z,1.00
2019-06-04T09:23:23.416Z,1.00
2019-06-04T09:25:53.562Z,1.00
2019-06-04T09:28:23.868Z,1.00
2019-06-04T09:31:02.413Z,1.00
2019-06-04T09:33:26.027Z,1.00
2019-06-04T09:35:56.205Z,1.00
2019-06-04T09:38:26.327Z,1.00
2019-06-04T09:40:56.467Z,1.00
2019-06-04T09:43:27.467Z,1.00
2019-06-04T09:45:58.251Z,1.00
2019-06-04T09:48:28.399Z,1.00
2019-06-04T09:50:59.828Z,1.00
2019-06-04T09:53:30.481Z,1.00
2019-06-04T09:56:00.612Z,1.00
2019-06-04T09:58:31.438Z,1.00
2019-06-04T10:01:06.135Z,1.00
2019-06-04T10:03:34.625Z,1.00
2019-06-04T10:06:05.037Z,1.00
2019-06-04T10:08:35.639Z,1.00
2019-06-04T10:11:05.769Z,1.00
2019-06-04T10:13:35.873Z,1.00
2019-06-04T10:16:06.198Z,1.00
2019-06-04T10:18:36.371Z,1.00
2019-06-04T10:21:06.500Z,1.00
2019-06-04T10:23:36.701Z,1.00
2019-06-04T10:26:24.087Z,1.00
2019-06-04T10:28:38.753Z,1.00
2019-06-04T10:31:08.938Z,1.00
2019-06-04T10:33:39.140Z,1.00
2019-06-04T10:36:09.310Z,1.00
2019-06-04T10:38:40.383Z,1.00
2019-06-04T10:41:10.565Z,1.00
2019-06-04T10:43:40.687Z,1.00
2019-06-04T10:46:10.765Z,1.00
2019-06-04T10:48:40.901Z,1.00
2019-06-04T10:51:14.225Z,1.00
2019-06-04T10:53:43.016Z,1.00
2019-06-04T10:56:13.161Z,1.00
2019-06-04T10:58:44.355Z,1.00
2019-06-04T11:01:14.610Z,1.00
2019-06-04T11:03:44.804Z,1.00
2019-06-04T11:06:15.136Z,1.00
2019-06-04T11:08:51.999Z,1.00
2019-06-04T11:11:17.154Z,1.00
2019-06-04T11:13:48.640Z,1.00
2019-06-04T11:16:18.945Z,1.00
2019-06-04T11:18:50.245Z,1.00
2019-06-04T11:21:37.784Z,1.00
2019-06-04T11:23:54.811Z,1.00
2019-06-04T11:26:25.153Z,1.00
2019-06-04T11:28:55.517Z,1.00
2019-06-04T11:31:25.615Z,1.00
2019-06-04T11:34:18.522Z,1.00
2019-06-04T11:36:28.569Z,1.00
2019-06-04T11:39:13.151Z,1.00
2019-06-04T11:41:30.610Z,1.00
2019-06-04T11:44:00.995Z,1.00
2019-06-04T11:46:31.276Z,1.00
2019-06-04T11:49:01.908Z,1.00
2019-06-04T11:51:32.546Z,1.00
2019-06-04T11:54:03.493Z,1.00
2019-06-04T11:56:35.231Z,1.00
2019-06-04T11:59:06.710Z,1.00
2019-06-04T12:01:36.990Z,1.00
2019-06-04T12:04:07.157Z,1.00
2019-06-04T12:06:37.276Z,1.00
2019-06-04T12:09:29.085Z,1.00
2019-06-04T12:11:40.530Z,1.00
2019-06-04T12:14:10.730Z,1.00
2019-06-04T12:16:44.756Z,1.00
2019-06-04T12:19:12.668Z,1.00
2019-06-04T12:21:42.917Z,1.00
2019-06-04T12:24:13.043Z,1.00
2019-06-04T12:26:43.561Z,1.00
2019-06-04T12:29:13.671Z,1.00
2019-06-04T12:31:43.866Z,1.00
2019-06-04T12:34:15.187Z,1.00
2019-06-04T12:36:45.459Z,1.00
2019-06-04T12:39:15.799Z,1.00
2019-06-04T12:41:46.036Z,1.00
2019-06-04T12:44:16.593Z,1.00
2019-06-04T12:46:46.720Z,1.00
2019-06-04T12:49:17.023Z,1.00
2019-06-04T12:51:47.098Z,1.00
2019-06-04T12:54:18.928Z,1.00
2019-06-04T12:56:50.251Z,1.00
2019-06-04T12:59:21.323Z,1.00
2019-06-04T13:01:52.704Z,1.00
2019-06-04T13:04:25.013Z,1.00
2019-06-04T13:06:55.448Z,1.00
2019-06-04T13:09:25.688Z,1.00
2019-06-04T13:12:02.343Z,1.00
2019-06-04T13:14:30.598Z,1.00
2019-06-04T13:17:00.752Z,1.00
2019-06-04T13:19:31.237Z,1.00
2019-06-04T13:22:02.803Z,1.00
2019-06-04T13:24:33.477Z,1.00
2019-06-04T13:27:05.961Z,1.00
2019-06-04T13:29:45.091Z,1.00
2019-06-04T13:32:08.616Z,1.00
2019-06-04T13:34:38.785Z,1.00
2019-06-04T13:37:10.819Z,1.00
2019-06-04T13:39:41.829Z,1.00
2019-06-04T13:42:12.115Z,1.00
2019-06-04T13:44:42.355Z,1.00
2019-06-04T13:47:12.565Z,1.00
2019-06-04T13:49:42.717Z,1.00
2019-06-04T13:52:16.428Z,1.00
2019-06-04T13:54:44.644Z,1.00
2019-06-04T13:57:14.895Z,1.00
2019-06-04T13:59:46.258Z,1.00
2019-06-04T14:02:16.570Z,1.00
2019-06-04T14:04:47.141Z,1.00
2019-06-04T14:07:17.306Z,1.00
2019-06-04T14:09:47.368Z,1.00
2019-06-04T14:12:17.490Z,1.00
2019-06-04T14:14:47.669Z,1.00
2019-06-04T14:17:17.872Z,1.00
2019-06-04T14:19:49.935Z,1.00
2019-06-04T14:22:19.772Z,1.00
2019-06-04T14:25:03.208Z,1.00
2019-06-04T14:27:33.394Z,1.00
2019-06-04T14:30:05.181Z,1.00
2019-06-04T14:32:36.553Z,1.00
2019-06-04T14:35:07.442Z,1.00
2019-06-04T14:37:37.788Z,1.00
2019-06-04T14:40:24.608Z,1.00
2019-06-04T14:42:40.454Z,1.00
2019-06-04T14:45:11.653Z,1.00
2019-06-04T14:47:41.738Z,1.00
2019-06-04T14:50:14.968Z,1.00
2019-06-04T14:52:44.340Z,1.00
2019-06-04T14:55:16.858Z,1.00
2019-06-04T14:57:47.751Z,1.00
2019-06-04T15:00:18.620Z,1.00
2019-06-04T15:02:48.919Z,1.00
2019-06-04T15:05:19.894Z,1.00
2019-06-04T15:08:01.883Z,1.00
2019-06-04T15:10:22.519Z,1.00
2019-06-04T15:12:52.912Z,1.00
2019-06-04T15:15:23.090Z,1.00
2019-06-04T15:17:57.385Z,1.00
2019-06-04T15:20:25.451Z,1.00
2019-06-04T15:22:55.591Z,1.00
2019-06-04T15:25:27.856Z,1.00
2019-06-04T15:27:59.496Z,1.00
2019-06-04T15:30:30.568Z,1.00
2019-06-04T15:33:01.047Z,1.00
2019-06-04T15:35:31.438Z,1.00
2019-06-04T15:38:01.659Z,1.00
2019-06-04T15:40:31.889Z,1.00
2019-06-04T15:43:02.360Z,1.00
2019-06-04T15:45:35.357Z,1.00
2019-06-04T15:48:06.468Z,1.00
2019-06-04T15:50:37.502Z,1.00
2019-06-04T15:53:08.248Z,1.00
2019-06-04T15:55:38.471Z,1.00
2019-06-04T15:58:08.926Z,1.00
2019-06-04T16:00:39.078Z,1.00
2019-06-04T16:03:09.276Z,1.00
2019-06-04T16:05:39.438Z,1.00
2019-06-04T16:08:09.558Z,1.00
2019-06-04T16:10:39.891Z,1.00
2019-06-04T16:13:10.110Z,1.00
2019-06-04T16:15:40.327Z,1.00
2019-06-04T16:18:10.767Z,1.00
2019-06-04T16:20:41.488Z,1.00
2019-06-04T16:23:15.739Z,1.00
2019-06-04T16:25:48.449Z,1.00
2019-06-04T16:28:16.242Z,1.00
2019-06-04T16:30:46.926Z,1.00
2019-06-04T16:33:18.699Z,1.00
2019-06-04T16:35:48.908Z,1.00
2019-06-04T16:38:25.768Z,1.00
2019-06-04T16:40:51.236Z,1.00
2019-06-04T16:43:21.554Z,1.00
2019-06-04T16:45:51.703Z,1.00
2019-06-04T16:48:23.113Z,1.00
2019-06-04T16:50:54.313Z,1.00
2019-06-04T16:53:25.348Z,1.00
2019-06-04T16:55:55.640Z,1.00
2019-06-04T16:58:26.116Z,1.00
2019-06-04T17:00:56.436Z,1.00
2019-06-04T17:03:30.257Z,1.00
2019-06-04T17:05:58.478Z,1.00
2019-06-04T17:08:30.075Z,1.00
2019-06-04T17:11:00.618Z,1.00
2019-06-04T17:13:32.349Z,1.00
2019-06-04T17:16:02.661Z,1.00
2019-06-04T17:18:33.012Z,1.00
2019-06-04T17:21:03.353Z,1.00
2019-06-04T17:23:33.529Z,1.00
2019-06-04T17:26:06.811Z,1.00
2019-06-04T17:28:35.770Z,1.00
2019-06-04T17:31:05.934Z,1.00
2019-06-04T17:33:36.121Z,1.00
2019-06-04T17:36:06.296Z,1.00
2019-06-04T17:38:36.842Z,1.00
2019-06-04T17:41:06.997Z,1.00
2019-06-04T17:43:37.196Z,1.00
2019-06-04T17:46:07.463Z,1.00
2019-06-04T17:48:37.907Z,1.00
2019-06-04T17:51:08.146Z,1.00
2019-06-04T17:53:38.354Z,1.00
2019-06-04T17:56:08.793Z,1.00
2019-06-04T17:58:38.992Z,1.00
2019-06-04T18:01:09.212Z,1.00
2019-06-04T18:03:39.681Z,1.00
2019-06-04T18:06:09.915Z,1.00
2019-06-04T18:08:40.127Z,1.00
2019-06-04T18:11:10.274Z,1.00
2019-06-04T18:13:40.622Z,1.00
2019-06-04T18:16:10.930Z,1.00
2019-06-04T18:18:41.499Z,1.00
2019-06-04T18:21:11.862Z,1.00
2019-06-04T18:23:42.165Z,1.00
2019-06-04T18:26:12.560Z,1.00
2019-06-04T18:28:42.782Z,1.00
2019-06-04T18:31:13.097Z,1.00
2019-06-04T18:33:47.912Z,1.00
2019-06-04T18:36:15.464Z,1.00
2019-06-04T18:38:45.651Z,1.00
2019-06-04T18:41:15.963Z,1.00
2019-06-04T18:43:51.961Z,1.00
2019-06-04T18:46:19.712Z,1.00
2019-06-04T18:48:50.275Z,1.00
2019-06-04T18:51:20.810Z,1.00
2019-06-04T18:53:51.616Z,1.00
2019-06-04T18:56:22.237Z,1.00
2019-06-04T18:58:54.441Z,1.00
2019-06-04T19:01:28.176Z,1.00
2019-06-04T19:03:58.915Z,1.00
2019-06-04T19:06:30.911Z,1.00
2019-06-04T19:09:01.554Z,1.00
2019-06-04T19:11:33.066Z,1.00
2019-06-04T19:14:05.377Z,1.00
2019-06-04T19:16:37.274Z,1.00
2019-06-04T19:19:27.428Z,1.00
2019-06-04T19:21:46.433Z,1.00
2019-06-04T19:24:14.214Z,1.00
2019-06-04T19:26:45.350Z,1.00
2019-06-04T19:29:15.858Z,1.00
2019-06-04T19:31:46.163Z,1.00
2019-06-04T19:34:16.615Z,1.00
2019-06-04T19:36:46.777Z,1.00
2019-06-04T19:39:16.929Z,1.00
2019-06-04T19:41:47.660Z,1.00
2019-06-04T19:44:21.805Z,1.00
2019-06-04T19:46:49.711Z,1.00
2019-06-04T19:49:19.874Z,1.00
2019-06-04T19:51:53.985Z,1.00
2019-06-04T19:54:34.650Z,1.00
2019-06-04T19:57:05.287Z,1.00
2019-06-04T19:59:37.187Z,1.00
2019-06-04T20:02:07.899Z,1.00
2019-06-04T20:04:41.826Z,1.00
2019-06-04T20:07:12.273Z,1.00
2019-06-04T20:09:42.602Z,1.00
2019-06-04T20:12:13.042Z,1.00
2019-06-04T20:14:46.623Z,1.00
2019-06-04T20:17:15.543Z,1.00
2019-06-04T20:19:45.824Z,1.00
2019-06-04T20:22:21.854Z,1.00
2019-06-04T20:24:52.281Z,1.00
2019-06-04T20:27:22.693Z,1.00
2019-06-04T20:29:53.205Z,1.00
2019-06-04T20:32:23.761Z,1.00
2019-06-04T20:34:53.999Z,1.00
2019-06-04T20:37:24.305Z,1.00
2019-06-04T20:39:54.771Z,1.00
2019-06-04T20:42:25.010Z,1.00
2019-06-04T20:45:11.457Z,1.00
2019-06-04T20:47:27.292Z,1.00
2019-06-04T20:49:58.782Z,1.00
2019-06-04T20:52:28.900Z,1.00
2019-06-04T20:54:59.076Z,1.00
2019-06-04T20:57:29.291Z,1.00
2019-06-04T21:00:02.450Z,1.00
2019-06-04T21:02:32.461Z,1.00
2019-06-04T21:05:02.781Z,1.00
2019-06-04T21:07:33.741Z,1.00
2019-06-04T21:10:04.610Z,1.00
2019-06-04T21:12:34.754Z,1.00
2019-06-04T21:15:23.723Z,1.00
2019-06-04T21:17:37.968Z,1.00
2019-06-04T21:20:09.677Z,1.00
2019-06-04T21:22:39.784Z,1.00
2019-06-04T21:25:10.180Z,1.00
2019-06-04T21:27:40.340Z,1.00
2019-06-04T21:30:11.062Z,1.00
2019-06-04T21:32:41.161Z,1.00
2019-06-04T21:35:11.787Z,1.00
2019-06-04T21:37:42.052Z,1.00
2019-06-04T21:40:12.927Z,1.00
2019-06-04T21:42:43.024Z,1.00
2019-06-04T21:45:13.351Z,1.00
2019-06-04T21:47:43.454Z,1.00
2019-06-04T21:50:13.949Z,1.00
2019-06-04T21:52:44.172Z,1.00
2019-06-04T21:55:14.722Z,1.00
2019-06-04T21:57:46.416Z,1.00
2019-06-04T22:00:19.524Z,1.00
2019-06-04T22:02:53.868Z,1.00
2019-06-04T22:05:24.044Z,1.00
2019-06-04T22:07:54.170Z,1.00
2019-06-04T22:10:25.777Z,1.00
2019-06-04T22:12:56.460Z,1.00
2019-06-04T22:15:26.990Z,1.00
2019-06-04T22:17:57.209Z,1.00
2019-06-04T22:20:27.521Z,1.00
2019-06-04T22:23:01.834Z,1.00
2019-06-04T22:25:38.073Z,1.00
2019-06-04T22:28:17.176Z,1.00
2019-06-04T22:30:48.241Z,8.80
2019-06-04T22:33:21.553Z,16.20
2019-06-04T22:35:52.968Z,74.70
2019-06-04T22:38:23.337Z,99.90
2019-06-04T22:40:54.434Z,99.90
2019-06-04T22:43:25.453Z,99.90
2019-06-04T22:45:55.829Z,99.90
2019-06-04T22:48:26.375Z,99.90
2019-06-04T22:50:56.745Z,99.90
2019-06-04T22:53:27.029Z,99.90
2019-06-04T22:55:57.238Z,99.90
2019-06-04T22:58:27.793Z,99.90
2019-06-04T23:00:58.119Z,99.90
2019-06-04T23:03:28.866Z,99.90
2019-06-04T23:06:00.394Z,99.90
2019-06-04T23:08:30.859Z,1.00
2019-06-04T23:11:02.728Z,1.00
2019-06-04T23:13:33.549Z,99.90
2019-06-04T23:16:03.857Z,99.90
2019-06-04T23:18:39.417Z,99.90
2019-06-04T23:21:11.871Z,97.60
2019-06-04T23:23:42.435Z,26.20
2019-06-04T23:26:15.752Z,60.60
2019-06-04T23:28:50.228Z,50.90
2019-06-04T23:31:21.813Z,30.20
2019-06-04T23:33:56.576Z,1.00
2019-06-04T23:36:33.115Z,1.00
2019-06-04T23:39:05.707Z,99.90
2019-06-04T23:41:36.805Z,99.90
2019-06-04T23:44:08.395Z,99.90
2019-06-04T23:46:54.982Z,99.90
2019-06-04T23:49:14.692Z,99.90
2019-06-04T23:51:46.350Z,99.90
2019-06-04T23:54:16.563Z,1.00
2019-06-04T23:56:46.804Z,42.20
2019-06-04T23:59:17.517Z,1.00
